Time;durP1;ratioP1;P1;durP2;ratioP2;P2;SDS_P1;SDS_P2;PMS_P1;PMS_P2;Temp;Humidity;BMP_temperature;BMP_pressure;BME280_temperature;BME280_humidity;BME280_pressure;Samples;Min_cycle;Max_cycle;Signal;HPM_P1;HPM_P2
2023/06/17 00:01:51;;;;;;;;;;;;;;;22.65;72.14;98785.09;5093282;28;20086;-41
2023/06/17 00:04:16;;;;;;;;;;;;;;;22.76;71.82;98783.75;5093425;28;19912;-41
2023/06/17 00:06:41;;;;;;;;;;;;;;;22.65;71.99;98785.88;5093288;28;19912;-42
2023/06/17 00:09:07;;;;;;;;;;;;;;;22.55;72.49;98788.84;5093410;28;19912;-42
2023/06/17 00:11:32;;;;;;;;;;;;;;;22.73;72.00;98781.69;5093131;28;19912;-42
2023/06/17 00:14:00;;;;;;;;;;;;;;;23.13;70.42;98784.53;5093065;28;19916;-43
2023/06/17 00:16:26;;;;;;;;;;;;;;;23.18;70.02;98784.38;5092972;28;19920;-42
2023/06/17 00:18:51;;;;;;;;;;;;;;;23.14;69.61;98785.31;5093233;28;19918;-43
2023/06/17 00:21:17;;;;;;;;;;;;;;;23.03;70.23;98788.28;5093103;28;19931;-43
2023/06/17 00:23:42;;;;;;;;;;;;;;;23.11;69.60;98784.00;5092664;28;19913;-43
2023/06/17 00:26:07;;;;;;;;;;;;;;;23.05;69.86;98782.56;5092814;28;19912;-43
2023/06/17 00:28:32;;;;;;;;;;;;;;;23.28;69.05;98786.03;5092639;28;19912;-43
2023/06/17 00:30:58;;;;;;;;;;;;;;;23.29;68.76;98784.94;5092748;28;19920;-44
2023/06/17 00:33:23;;;;;;;;;;;;;;;23.27;69.14;98787.16;5092479;28;20320;-43
2023/06/17 00:35:48;;;;;;;;;;;;;;;23.30;68.96;98785.72;5093619;28;20010;-44
2023/06/17 00:38:14;;;;;;;;;;;;;;;23.13;69.10;98789.97;5093224;28;19916;-44
2023/06/17 00:40:39;;;;;;;;;;;;;;;22.98;70.34;98785.69;5093694;28;19912;-43
2023/06/17 00:43:04;;;;;;;;;;;;;;;23.04;70.00;98783.69;5093362;28;20316;-43
2023/06/17 00:45:38;;;;;;;;;;;;;;;22.69;71.39;98788.78;5092820;28;19916;-43
2023/06/17 00:48:04;;;;;;;;;;;;;;;22.80;71.35;98786.66;5092984;28;20325;-43
2023/06/17 00:50:29;;;;;;;;;;;;;;;22.78;71.70;98786.97;5092858;28;20374;-43
2023/06/17 00:52:54;;;;;;;;;;;;;;;22.99;70.75;98781.84;5092820;28;19912;-43
2023/06/17 00:55:20;;;;;;;;;;;;;;;23.05;70.77;98787.97;5092518;28;19916;-43
2023/06/17 00:57:47;;;;;;;;;;;;;;;22.95;70.95;98788.22;5092798;28;19916;-44
2023/06/17 01:00:13;;;;;;;;;;;;;;;22.37;72.86;98779.78;5092586;28;19962;-43
2023/06/17 01:02:43;;;;;;;;;;;;;;;22.48;73.03;98784.94;5091317;28;19912;-40
2023/06/17 01:05:12;;;;;;;;;;;;;;;22.44;73.43;98777.41;5092696;28;19912;-40
2023/06/17 01:07:42;;;;;;;;;;;;;;;21.94;75.03;98790.94;5092639;28;20314;-41
2023/06/17 01:10:19;;;;;;;;;;;;;;;22.09;75.13;98781.69;5092583;28;19916;-41
2023/06/17 01:12:46;;;;;;;;;;;;;;;22.30;73.77;98781.28;5092889;28;19912;-41
2023/06/17 01:15:15;;;;;;;;;;;;;;;22.42;72.52;98784.25;5092435;28;19970;-41
2023/06/17 01:17:44;;;;;;;;;;;;;;;21.71;75.21;98784.59;5092470;28;19947;-40
2023/06/17 01:20:11;;;;;;;;;;;;;;;21.69;75.26;98783.31;5092608;28;19916;-41
2023/06/17 01:22:37;;;;;;;;;;;;;;;21.70;74.95;98782.19;5092248;28;19913;-41
2023/06/17 01:25:03;;;;;;;;;;;;;;;22.06;73.87;98776.88;5092456;28;19919;-41
2023/06/17 01:27:29;;;;;;;;;;;;;;;22.39;72.13;98779.44;5092407;28;19912;-41
2023/06/17 01:29:54;;;;;;;;;;;;;;;22.00;73.24;98773.47;5092367;28;19920;-42
2023/06/17 01:32:20;;;;;;;;;;;;;;;21.59;75.45;98781.56;5092161;28;20006;-42
2023/06/17 01:34:45;;;;;;;;;;;;;;;21.77;75.02;98779.91;5092044;28;20057;-42
2023/06/17 01:37:14;;;;;;;;;;;;;;;21.83;74.55;98779.47;5092215;28;20248;-41
2023/06/17 01:39:41;;;;;;;;;;;;;;;21.82;73.31;98768.97;5092016;28;19918;-41
2023/06/17 01:42:09;;;;;;;;;;;;;;;21.98;73.36;98778.38;5092032;28;19920;-41
2023/06/17 01:44:35;;;;;;;;;;;;;;;21.88;73.08;98775.88;5092251;28;20328;-42
2023/06/17 01:47:02;;;;;;;;;;;;;;;21.94;72.93;98769.25;5091946;28;19969;-41
2023/06/17 01:49:27;;;;;;;;;;;;;;;21.76;73.46;98770.97;5091543;28;20344;-42
2023/06/17 01:51:52;;;;;;;;;;;;;;;21.93;72.92;98770.34;5091772;28;19912;-41
2023/06/17 01:54:18;;;;;;;;;;;;;;;22.33;71.38;98781.50;5091879;28;20255;-41
2023/06/17 01:56:43;;;;;;;;;;;;;;;22.13;72.15;98779.19;5091819;28;19912;-41
2023/06/17 01:59:08;;;;;;;;;;;;;;;22.12;72.45;98774.84;5089803;28;20279;-43
2023/06/17 02:01:34;;;;;;;;;;;;;;;22.17;72.08;98783.69;5098017;28;20480;-42
2023/06/17 02:03:59;;;;;;;;;;;;;;;22.10;72.06;98779.78;5091754;28;19916;-41
2023/06/17 02:06:24;;;;;;;;;;;;;;;22.35;71.73;98778.44;5091227;28;19969;-42
2023/06/17 02:08:50;;;;;;;;;;;;;;;22.48;70.99;98777.63;5091747;28;19984;-42
2023/06/17 02:11:15;;;;;;;;;;;;;;;22.60;70.80;98768.97;5092161;28;19916;-43
2023/06/17 02:13:40;;;;;;;;;;;;;;;22.67;69.83;98774.75;5092027;28;19912;-42
2023/06/17 02:16:06;;;;;;;;;;;;;;;22.72;69.68;98777.34;5091628;28;20284;-44
2023/06/17 02:18:32;;;;;;;;;;;;;;;22.67;69.83;98768.53;5105327;28;19915;-42
2023/06/17 02:20:59;;;;;;;;;;;;;;;22.86;69.29;98771.06;5111941;28;19912;-41
2023/06/17 02:23:25;;;;;;;;;;;;;;;22.89;68.90;98768.53;5112152;28;19984;-42
2023/06/17 02:25:51;;;;;;;;;;;;;;;22.86;68.95;98771.84;5111675;28;20279;-43
2023/06/17 02:28:16;;;;;;;;;;;;;;;22.70;69.75;98766.00;5111465;28;20379;-41
2023/06/17 02:30:41;;;;;;;;;;;;;;;22.73;69.79;98768.13;5091342;28;19947;-41
2023/06/17 02:33:07;;;;;;;;;;;;;;;22.73;69.99;98768.13;5091306;28;19924;-43
2023/06/17 02:35:32;;;;;;;;;;;;;;;22.74;70.05;98771.63;5090661;28;19916;-42
2023/06/17 02:37:59;;;;;;;;;;;;;;;22.82;69.82;98768.94;5091273;28;19918;-43
2023/06/17 02:40:24;;;;;;;;;;;;;;;22.67;70.45;98763.91;5091408;28;19920;-42
2023/06/17 02:42:50;;;;;;;;;;;;;;;22.79;70.22;98760.63;5091360;28;20059;-42
2023/06/17 02:45:15;;;;;;;;;;;;;;;22.77;70.41;98758.25;5091661;28;19935;-42
2023/06/17 02:47:41;;;;;;;;;;;;;;;22.88;70.05;98758.00;5091659;28;19919;-43
2023/06/17 02:50:07;;;;;;;;;;;;;;;22.92;70.73;98756.25;5091292;28;19935;-43
2023/06/17 02:52:34;;;;;;;;;;;;;;;23.04;69.57;98753.84;5091318;28;19912;-43
2023/06/17 02:54:59;;;;;;;;;;;;;;;23.02;72.05;98761.44;5091290;28;19916;-44
2023/06/17 02:57:25;;;;;;;;;;;;;;;23.49;70.39;98753.72;5091074;28;20446;-42
2023/06/17 02:59:50;;;;;;;;;;;;;;;23.86;68.32;98759.81;5091439;28;19912;-43
2023/06/17 03:02:16;;;;;;;;;;;;;;;24.25;65.02;98754.59;5091205;28;20464;-43
2023/06/17 03:04:41;;;;;;;;;;;;;;;24.27;64.51;98753.16;5091380;28;19923;-40
2023/06/17 03:07:06;;;;;;;;;;;;;;;24.10;64.59;98753.94;5090406;28;20364;-41
2023/06/17 03:09:32;;;;;;;;;;;;;;;23.81;65.39;98758.03;5089497;28;19991;-41
2023/06/17 03:12:02;;;;;;;;;;;;;;;23.61;66.12;98753.94;5089776;28;20445;-43
2023/06/17 03:14:29;;;;;;;;;;;;;;;23.30;67.04;98753.94;5089791;28;19920;-42
2023/06/17 03:16:57;;;;;;;;;;;;;;;22.96;68.86;98757.25;5090567;28;20350;-41
2023/06/17 03:19:22;;;;;;;;;;;;;;;22.74;69.30;98764.28;5093717;28;19913;-42
2023/06/17 03:21:49;;;;;;;;;;;;;;;22.90;69.23;98766.63;5094030;28;20307;-42
2023/06/17 03:24:14;;;;;;;;;;;;;;;22.74;69.40;98768.91;5095017;28;19915;-42
2023/06/17 03:26:40;;;;;;;;;;;;;;;22.70;69.76;98765.22;5094825;28;19919;-43
2023/06/17 03:29:05;;;;;;;;;;;;;;;22.57;70.27;98764.16;5094747;28;19974;-42
2023/06/17 03:31:30;;;;;;;;;;;;;;;22.52;70.71;98767.75;5094805;28;19958;-42
2023/06/17 03:33:55;;;;;;;;;;;;;;;22.71;70.04;98770.31;5094662;28;20377;-42
2023/06/17 03:36:30;;;;;;;;;;;;;;;22.80;69.57;98773.09;5094795;28;20042;-41
2023/06/17 03:38:56;;;;;;;;;;;;;;;22.67;70.37;98772.03;5094427;28;19960;-42
2023/06/17 03:41:25;;;;;;;;;;;;;;;22.72;69.98;98771.13;5093093;28;19951;-41
2023/06/17 03:43:50;;;;;;;;;;;;;;;22.93;69.10;98772.22;5094179;28;19950;-42
2023/06/17 03:46:16;;;;;;;;;;;;;;;23.00;68.90;98775.31;5094219;28;20385;-41
2023/06/17 03:48:41;;;;;;;;;;;;;;;23.05;68.59;98776.31;5094169;28;19936;-41
2023/06/17 03:51:06;;;;;;;;;;;;;;;22.87;69.74;98783.53;5093990;28;19912;-41
2023/06/17 03:53:32;;;;;;;;;;;;;;;23.15;68.92;98784.19;5094121;28;19919;-42
2023/06/17 03:55:57;;;;;;;;;;;;;;;23.28;67.87;98787.97;5093928;28;20380;-42
2023/06/17 03:58:22;;;;;;;;;;;;;;;22.97;68.62;98786.78;5094072;28;19912;-43
2023/06/17 04:00:48;;;;;;;;;;;;;;;23.26;68.24;98792.91;5093959;28;19911;-42
2023/06/17 04:03:14;;;;;;;;;;;;;;;23.03;68.76;98793.69;5094190;28;19922;-42
2023/06/17 04:05:41;;;;;;;;;;;;;;;22.87;69.47;98792.47;5094152;28;19957;-41
2023/06/17 04:08:06;;;;;;;;;;;;;;;22.70;70.01;98789.63;5093937;28;19916;-41
2023/06/17 04:10:32;;;;;;;;;;;;;;;22.28;71.86;98791.63;5093858;28;19919;-41
2023/06/17 04:12:57;;;;;;;;;;;;;;;22.38;71.83;98791.41;5094080;28;19969;-42
2023/06/17 04:15:22;;;;;;;;;;;;;;;22.84;70.44;98793.06;5093857;28;19923;-41
2023/06/17 04:17:47;;;;;;;;;;;;;;;22.17;72.80;98796.44;5093917;28;20334;-42
2023/06/17 04:20:13;;;;;;;;;;;;;;;22.01;73.77;98795.94;5094124;28;19923;-42
2023/06/17 04:22:39;;;;;;;;;;;;;;;21.79;74.74;98789.31;5093873;28;20404;-42
2023/06/17 04:25:05;;;;;;;;;;;;;;;22.30;73.77;98792.13;5093671;28;19912;-42
2023/06/17 04:27:31;;;;;;;;;;;;;;;22.69;71.49;98798.84;5093695;28;19999;-41
2023/06/17 04:29:56;;;;;;;;;;;;;;;22.63;71.95;98796.25;5093624;28;20004;-41
2023/06/17 04:32:22;;;;;;;;;;;;;;;21.53;76.75;98802.53;5093864;28;20392;-41
2023/06/17 04:34:47;;;;;;;;;;;;;;;21.95;75.41;98813.38;5093694;28;20303;-41
2023/06/17 04:37:14;;;;;;;;;;;;;;;21.97;75.41;98812.00;5093739;28;20020;-41
2023/06/17 04:39:39;;;;;;;;;;;;;;;22.22;74.57;98818.00;5093592;28;19977;-42
2023/06/17 04:42:05;;;;;;;;;;;;;;;22.35;73.32;98824.53;5093130;28;20348;-41
2023/06/17 04:44:31;;;;;;;;;;;;;;;22.61;72.42;98816.66;5093448;28;19999;-41
2023/06/17 04:46:58;;;;;;;;;;;;;;;22.71;71.43;98826.44;5093305;28;20026;-41
2023/06/17 04:49:24;;;;;;;;;;;;;;;22.44;73.36;98831.63;5093227;28;20027;-41
2023/06/17 04:51:49;;;;;;;;;;;;;;;22.56;72.85;98828.41;5093171;28;20003;-43
2023/06/17 04:54:14;;;;;;;;;;;;;;;22.77;71.82;98831.47;5092732;28;20004;-42
2023/06/17 04:56:40;;;;;;;;;;;;;;;22.98;71.42;98837.22;5093066;28;20622;-43
2023/06/17 04:59:05;;;;;;;;;;;;;;;23.07;71.17;98840.00;5091288;28;19916;-43
2023/06/17 05:01:31;;;;;;;;;;;;;;;23.33;70.28;98847.53;5092909;28;19961;-43
2023/06/17 05:03:56;;;;;;;;;;;;;;;23.22;70.67;98846.97;5093058;28;19960;-42
2023/06/17 05:06:21;;;;;;;;;;;;;;;23.30;70.63;98848.94;5092823;28;19912;-43
2023/06/17 05:08:46;;;;;;;;;;;;;;;23.48;70.23;98854.50;5092716;28;19920;-43
2023/06/17 05:11:12;;;;;;;;;;;;;;;23.45;69.88;98863.25;5092673;28;19912;-43
2023/06/17 05:13:38;;;;;;;;;;;;;;;23.14;72.10;98862.09;5092586;28;20335;-42
2023/06/17 05:16:03;;;;;;;;;;;;;;;23.07;71.67;98863.63;5092077;28;20417;-42
2023/06/17 05:18:28;;;;;;;;;;;;;;;22.98;73.20;98861.63;5092195;28;19939;-42
2023/06/17 05:20:54;;;;;;;;;;;;;;;23.35;71.51;98875.19;5092139;28;19946;-43
2023/06/17 05:23:19;;;;;;;;;;;;;;;23.35;70.61;98870.53;5092046;28;20390;-44
2023/06/17 05:25:44;;;;;;;;;;;;;;;23.43;70.41;98872.50;5092255;28;19919;-43
2023/06/17 05:28:10;;;;;;;;;;;;;;;23.13;71.37;98878.69;5092106;28;19919;-43
2023/06/17 05:30:36;;;;;;;;;;;;;;;23.14;71.94;98878.38;5091635;28;20391;-44
2023/06/17 05:33:01;;;;;;;;;;;;;;;23.17;71.40;98885.91;5091721;28;20372;-44
2023/06/17 05:35:28;;;;;;;;;;;;;;;23.01;72.93;98885.41;5091855;28;20315;-42
2023/06/17 05:37:53;;;;;;;;;;;;;;;22.74;72.74;98875.47;5091625;28;20460;-42
2023/06/17 05:40:20;;;;;;;;;;;;;;;22.71;75.15;98877.97;5090522;28;20322;-44
2023/06/17 05:42:45;;;;;;;;;;;;;;;22.73;75.68;98876.59;5091836;28;20356;-43
2023/06/17 05:45:11;;;;;;;;;;;;;;;23.09;74.84;98880.41;5091643;28;19912;-42
2023/06/17 05:47:36;;;;;;;;;;;;;;;23.15;74.69;98887.31;5091580;28;19959;-43
2023/06/17 05:50:01;;;;;;;;;;;;;;;23.65;71.95;98889.13;5091569;28;19916;-45
2023/06/17 05:52:27;;;;;;;;;;;;;;;23.68;70.99;98900.13;5091631;28;19912;-45
2023/06/17 05:54:52;;;;;;;;;;;;;;;23.62;71.14;98899.44;5091715;28;19923;-44
2023/06/17 05:57:17;;;;;;;;;;;;;;;23.47;71.97;98901.75;5091118;28;19946;-43
2023/06/17 05:59:42;;;;;;;;;;;;;;;23.46;72.23;98902.88;5091451;28;20365;-45
2023/06/17 06:02:08;;;;;;;;;;;;;;;23.51;71.87;98903.53;5091453;28;19916;-45
2023/06/17 06:04:33;;;;;;;;;;;;;;;23.52;71.96;98907.06;5091426;28;19938;-43
2023/06/17 06:06:58;;;;;;;;;;;;;;;23.33;72.41;98908.06;5091157;28;19912;-41
2023/06/17 06:09:24;;;;;;;;;;;;;;;23.41;72.50;98915.44;5091195;28;19912;-41
2023/06/17 06:11:49;;;;;;;;;;;;;;;23.50;71.38;98920.16;5091446;28;19913;-43
2023/06/17 06:14:14;;;;;;;;;;;;;;;23.70;70.78;98914.19;5091250;28;19973;-44
2023/06/17 06:16:39;;;;;;;;;;;;;;;23.74;71.61;98914.38;5090950;28;19924;-44
2023/06/17 06:19:05;;;;;;;;;;;;;;;23.18;75.41;98911.94;5090581;28;19912;-42
2023/06/17 06:21:30;;;;;;;;;;;;;;;23.49;75.49;98923.97;5090780;28;19952;-42
2023/06/17 06:23:56;;;;;;;;;;;;;;;24.00;72.05;98925.41;5090396;28;19920;-43
2023/06/17 06:26:21;;;;;;;;;;;;;;;24.24;70.60;98926.94;5090637;28;19916;-42
2023/06/17 06:28:46;;;;;;;;;;;;;;;24.36;71.07;98921.72;5091103;28;20433;-44
2023/06/17 06:31:12;;;;;;;;;;;;;;;24.61;70.47;98919.44;5089090;28;20419;-42
2023/06/17 06:33:37;;;;;;;;;;;;;;;24.63;71.06;98917.19;5089071;28;19927;-44
2023/06/17 06:36:02;;;;;;;;;;;;;;;24.85;70.33;98919.00;5089339;28;19920;-43
2023/06/17 06:38:28;;;;;;;;;;;;;;;25.02;69.52;98920.91;5088932;28;19912;-43
2023/06/17 06:40:53;;;;;;;;;;;;;;;25.13;68.05;98916.75;5088718;28;19961;-41
2023/06/17 06:43:18;;;;;;;;;;;;;;;25.15;67.81;98904.47;5088521;28;19994;-41
2023/06/17 06:45:44;;;;;;;;;;;;;;;25.14;68.43;98902.84;5089561;28;20317;-43
2023/06/17 06:48:09;;;;;;;;;;;;;;;25.22;67.51;98906.69;5090221;28;19912;-41
2023/06/17 06:50:34;;;;;;;;;;;;;;;25.18;66.64;98905.72;5089799;28;20072;-43
2023/06/17 06:53:00;;;;;;;;;;;;;;;25.11;67.09;98903.50;5092511;28;19912;-43
2023/06/17 06:55:26;;;;;;;;;;;;;;;25.25;66.65;98900.63;5093461;28;19916;-43
2023/06/17 06:57:51;;;;;;;;;;;;;;;25.08;66.14;98906.84;5094268;28;20038;-43
2023/06/17 07:00:17;;;;;;;;;;;;;;;25.11;65.49;98908.13;5093629;28;20315;-43
2023/06/17 07:02:43;;;;;;;;;;;;;;;24.88;66.16;98910.19;5093863;28;19963;-42
2023/06/17 07:05:08;;;;;;;;;;;;;;;24.94;65.72;98912.47;5094144;28;20044;-41
2023/06/17 07:07:33;;;;;;;;;;;;;;;24.85;66.50;98914.38;5093894;28;19912;-42
2023/06/17 07:09:59;;;;;;;;;;;;;;;25.10;65.85;98909.25;5093938;28;19962;-43
2023/06/17 07:12:24;;;;;;;;;;;;;;;25.17;65.79;98901.41;5093538;28;19946;-42
2023/06/17 07:14:49;;;;;;;;;;;;;;;25.31;65.90;98909.44;5093737;28;19916;-42
2023/06/17 07:17:15;;;;;;;;;;;;;;;25.38;65.22;98919.81;5093668;28;19916;-42
2023/06/17 07:19:40;;;;;;;;;;;;;;;25.31;65.09;98912.97;5093330;28;19916;-42
2023/06/17 07:22:07;;;;;;;;;;;;;;;25.41;64.59;98908.31;5106443;28;20459;-43
2023/06/17 07:24:32;;;;;;;;;;;;;;;25.22;64.36;98911.34;5075264;28;19952;-41
2023/06/17 07:26:57;;;;;;;;;;;;;;;25.29;64.30;98911.69;5072975;28;19954;-41
2023/06/17 07:29:23;;;;;;;;;;;;;;;25.24;64.96;98923.53;5073625;28;19912;-42
2023/06/17 07:31:48;;;;;;;;;;;;;;;25.38;64.48;98911.66;5093414;28;19970;-41
2023/06/17 07:34:13;;;;;;;;;;;;;;;25.21;64.69;98907.81;5093395;28;19973;-42
2023/06/17 07:36:39;;;;;;;;;;;;;;;24.94;66.09;98915.19;5093454;28;19916;-42
2023/06/17 07:39:05;;;;;;;;;;;;;;;25.28;64.96;98908.13;5093491;28;19912;-42
2023/06/17 07:41:30;;;;;;;;;;;;;;;25.40;64.62;98909.41;5092606;28;19912;-44
2023/06/17 07:43:55;;;;;;;;;;;;;;;25.42;64.52;98909.88;5091440;28;19966;-44
2023/06/17 07:46:21;;;;;;;;;;;;;;;25.06;65.67;98903.66;5091707;28;19912;-42
2023/06/17 07:48:46;;;;;;;;;;;;;;;24.88;65.23;98915.63;5091624;28;19920;-42
2023/06/17 07:51:11;;;;;;;;;;;;;;;24.84;65.71;98911.97;5092723;28;19919;-44
2023/06/17 07:53:36;;;;;;;;;;;;;;;25.27;65.00;98912.00;5093113;28;19917;-43
2023/06/17 07:56:02;;;;;;;;;;;;;;;25.36;64.00;98910.06;5093715;28;19916;-43
2023/06/17 07:58:27;;;;;;;;;;;;;;;25.45;64.50;98912.78;5094441;28;19912;-42
2023/06/17 08:00:52;;;;;;;;;;;;;;;25.68;64.05;98907.94;5094768;28;20005;-43
2023/06/17 08:03:18;;;;;;;;;;;;;;;25.83;63.08;98909.34;5093984;28;19912;-43
2023/06/17 08:05:43;;;;;;;;;;;;;;;25.83;63.13;98906.59;5094212;28;19943;-42
2023/06/17 08:08:08;;;;;;;;;;;;;;;25.84;63.03;98910.16;5093483;28;19912;-42
2023/06/17 08:10:33;;;;;;;;;;;;;;;25.91;62.39;98913.16;5093622;28;19966;-41
2023/06/17 08:12:59;;;;;;;;;;;;;;;25.80;62.09;98914.63;5093453;28;19912;-42
2023/06/17 08:15:24;;;;;;;;;;;;;;;25.60;62.44;98922.38;5093675;28;19916;-42
2023/06/17 08:17:50;;;;;;;;;;;;;;;25.90;61.21;98925.19;5093250;28;20273;-43
2023/06/17 08:20:16;;;;;;;;;;;;;;;25.86;61.52;98930.50;5093098;28;20003;-43
2023/06/17 08:22:41;;;;;;;;;;;;;;;25.75;62.81;98930.03;5093181;28;20007;-45
2023/06/17 08:25:07;;;;;;;;;;;;;;;25.99;62.16;98936.91;5094029;28;20380;-47
2023/06/17 08:27:32;;;;;;;;;;;;;;;25.94;63.09;98935.13;5093027;28;19912;-43
2023/06/17 08:29:58;;;;;;;;;;;;;;;25.95;62.76;98941.41;5093183;28;20440;-45
2023/06/17 08:32:23;;;;;;;;;;;;;;;26.05;62.71;98938.31;5093021;28;19924;-44
2023/06/17 08:34:49;;;;;;;;;;;;;;;26.11;62.62;98936.22;5092805;28;19916;-44
2023/06/17 08:37:15;;;;;;;;;;;;;;;26.26;62.18;98935.66;5093370;28;19916;-44
2023/06/17 08:39:42;;;;;;;;;;;;;;;26.40;61.30;98934.66;5093010;28;19943;-44
2023/06/17 08:42:08;;;;;;;;;;;;;;;26.48;60.35;98939.25;5092844;28;19912;-43
2023/06/17 08:44:33;;;;;;;;;;;;;;;26.55;59.51;98931.34;5092530;28;19912;-42
2023/06/17 08:47:00;;;;;;;;;;;;;;;26.36;59.84;98933.72;5092437;28;19916;-41
2023/06/17 08:49:26;;;;;;;;;;;;;;;26.47;59.58;98943.91;5092391;28;19938;-43
2023/06/17 08:51:52;;;;;;;;;;;;;;;26.43;59.64;98937.53;5092315;28;20398;-44
2023/06/17 08:54:19;;;;;;;;;;;;;;;26.34;59.71;98937.56;5092590;28;19955;-43
2023/06/17 08:56:44;;;;;;;;;;;;;;;26.39;58.55;98936.59;5092163;28;20354;-42
2023/06/17 08:59:10;;;;;;;;;;;;;;;26.45;58.49;98940.72;5092414;28;20398;-42
2023/06/17 09:01:37;;;;;;;;;;;;;;;26.17;58.88;98940.34;5092380;28;20315;-43
2023/06/17 09:04:02;;;;;;;;;;;;;;;26.13;58.28;98904.75;5092371;28;20380;-41
2023/06/17 09:06:28;;;;;;;;;;;;;;;26.50;57.56;98937.00;5092329;28;19931;-43
2023/06/17 09:08:55;;;;;;;;;;;;;;;26.64;57.00;98942.25;5092484;28;19994;-41
2023/06/17 09:11:20;;;;;;;;;;;;;;;26.46;57.36;98942.31;5092440;28;19912;-44
2023/06/17 09:13:50;;;;;;;;;;;;;;;26.29;57.28;98937.75;5092165;28;19912;-42
2023/06/17 09:16:16;;;;;;;;;;;;;;;26.19;57.53;98938.09;5092026;28;19920;-43
2023/06/17 09:18:42;;;;;;;;;;;;;;;26.28;57.30;98936.16;5092062;28;19919;-43
2023/06/17 09:21:07;;;;;;;;;;;;;;;26.38;57.40;98939.63;5092052;28;19912;-41
2023/06/17 09:23:32;;;;;;;;;;;;;;;26.48;57.34;98942.81;5092117;28;19912;-43
2023/06/17 09:26:02;;;;;;;;;;;;;;;26.36;57.42;98945.41;5091612;28;19912;-42
2023/06/17 09:28:27;;;;;;;;;;;;;;;26.49;56.28;98943.59;5091657;28;19916;-43
2023/06/17 09:30:56;;;;;;;;;;;;;;;26.55;56.01;98952.38;5091443;28;19923;-42
2023/06/17 09:33:22;;;;;;;;;;;;;;;26.53;56.22;98950.78;5091699;28;19951;-43
2023/06/17 09:35:57;;;;;;;;;;;;;;;26.74;55.52;98950.06;5091446;28;20401;-42
2023/06/17 09:38:22;;;;;;;;;;;;;;;26.67;55.52;98958.78;5091482;28;19912;-42
2023/06/17 09:40:49;;;;;;;;;;;;;;;26.85;55.77;98951.28;5091732;28;19918;-44
2023/06/17 09:43:15;;;;;;;;;;;;;;;26.98;55.89;98948.59;5091577;28;19912;-42
2023/06/17 09:45:40;;;;;;;;;;;;;;;26.84;54.60;98948.88;5091707;28;19931;-42
2023/06/17 09:48:09;;;;;;;;;;;;;;;26.96;55.19;98948.16;5092151;28;19947;-41
2023/06/17 09:50:36;;;;;;;;;;;;;;;26.93;55.88;98946.88;5091432;28;19946;-42
2023/06/17 09:53:02;;;;;;;;;;;;;;;26.44;57.36;98955.47;5091003;28;19912;-42
2023/06/17 09:55:28;;;;;;;;;;;;;;;26.23;59.00;98949.16;5091303;28;19927;-41
2023/06/17 09:57:54;;;;;;;;;;;;;;;26.39;58.59;98952.94;5091558;28;19940;-43
2023/06/17 10:00:23;;;;;;;;;;;;;;;26.58;58.08;98951.72;5091239;28;19916;-43
2023/06/17 10:02:48;;;;;;;;;;;;;;;26.85;57.75;98950.47;5091318;28;19912;-44
2023/06/17 10:05:15;;;;;;;;;;;;;;;27.34;57.22;98950.78;5091928;28;19961;-43
2023/06/17 10:07:42;;;;;;;;;;;;;;;27.56;56.11;98946.09;5090658;28;19912;-42
2023/06/17 10:10:09;;;;;;;;;;;;;;;26.57;57.21;98953.66;5091547;28;20409;-43
2023/06/17 10:12:36;;;;;;;;;;;;;;;26.91;56.42;98941.75;5091712;28;19920;-43
2023/06/17 10:15:02;;;;;;;;;;;;;;;26.73;56.09;98948.44;5091115;28;19920;-42
2023/06/17 10:17:28;;;;;;;;;;;;;;;26.88;57.30;98947.06;5091669;28;19941;-43
2023/06/17 10:19:53;;;;;;;;;;;;;;;27.42;55.74;98947.19;5091638;28;19912;-41
2023/06/17 10:22:20;;;;;;;;;;;;;;;27.50;55.01;98957.22;5091746;28;20383;-42
2023/06/17 10:24:46;;;;;;;;;;;;;;;27.54;54.63;98946.44;5092041;28;19912;-42
2023/06/17 10:27:12;;;;;;;;;;;;;;;27.60;54.60;98944.28;5091327;28;19912;-43
2023/06/17 10:29:41;;;;;;;;;;;;;;;27.54;55.01;98948.38;5091759;28;19927;-42
2023/06/17 10:32:19;;;;;;;;;;;;;;;27.39;55.01;98953.31;5091443;28;19997;-42
2023/06/17 10:35:04;;;;;;;;;;;;;;;27.60;53.35;98950.53;5091561;28;20325;-41
2023/06/17 10:37:29;;;;;;;;;;;;;;;27.29;53.95;98949.06;5091604;28;19923;-42
2023/06/17 10:39:54;;;;;;;;;;;;;;;27.14;54.21;98955.09;5090715;28;19912;-42
2023/06/17 10:42:24;;;;;;;;;;;;;;;27.56;53.66;98946.88;5090828;28;19959;-42
2023/06/17 10:44:50;;;;;;;;;;;;;;;27.77;54.02;98955.03;5090834;28;19916;-42
2023/06/17 10:47:18;;;;;;;;;;;;;;;27.90;54.36;98944.97;5090779;28;19912;-43
2023/06/17 10:49:45;;;;;;;;;;;;;;;27.39;55.35;98947.84;5090751;28;19987;-42
2023/06/17 10:52:14;;;;;;;;;;;;;;;27.55;55.03;98939.03;5090964;28;20368;-44
2023/06/17 10:54:55;;;;;;;;;;;;;;;27.13;54.22;98939.03;5090799;28;20383;-42
2023/06/17 10:57:33;;;;;;;;;;;;;;;26.98;55.59;98932.22;5091382;28;19912;-43
2023/06/17 11:00:00;;;;;;;;;;;;;;;26.82;56.37;98938.28;5091277;28;19912;-44
2023/06/17 11:02:25;;;;;;;;;;;;;;;27.24;55.15;98938.28;5090819;28;19918;-41
2023/06/17 11:04:51;;;;;;;;;;;;;;;27.54;55.58;98938.22;5090654;28;19912;-45
2023/06/17 11:07:24;;;;;;;;;;;;;;;27.23;55.85;98930.44;5090688;28;20019;-44
2023/06/17 11:09:49;;;;;;;;;;;;;;;26.89;56.48;98929.59;5090453;28;20295;-50
2023/06/17 11:12:16;;;;;;;;;;;;;;;27.00;56.15;98921.81;5090673;28;20382;-43
2023/06/17 11:14:41;;;;;;;;;;;;;;;26.92;56.73;98921.53;5090591;28;19912;-43
2023/06/17 11:17:07;;;;;;;;;;;;;;;27.27;55.87;98931.41;5090506;28;19916;-44
2023/06/17 11:19:33;;;;;;;;;;;;;;;26.90;57.25;98915.59;5090536;28;19940;-42
2023/06/17 11:22:03;;;;;;;;;;;;;;;27.21;56.35;98916.34;5090743;28;20395;-42
2023/06/17 11:24:28;;;;;;;;;;;;;;;27.26;56.33;98914.22;5090676;28;19913;-43
2023/06/17 11:26:54;;;;;;;;;;;;;;;27.48;55.70;98913.03;5090667;28;20351;-43
2023/06/17 11:29:20;;;;;;;;;;;;;;;27.39;55.88;98909.59;5090796;28;19916;-43
2023/06/17 11:31:46;;;;;;;;;;;;;;;27.14;56.74;98907.88;5090747;28;19950;-43
2023/06/17 11:34:11;;;;;;;;;;;;;;;27.19;56.71;98911.22;5090473;28;19913;-43
2023/06/17 11:36:36;;;;;;;;;;;;;;;27.29;55.85;98905.34;5090220;28;19916;-41
2023/06/17 11:39:02;;;;;;;;;;;;;;;26.44;56.61;98902.84;5093079;28;19920;-42
2023/06/17 11:41:28;;;;;;;;;;;;;;;26.41;57.32;98906.25;5094014;28;19952;-41
2023/06/17 11:43:54;;;;;;;;;;;;;;;26.16;57.54;98906.06;5093871;28;19923;-41
2023/06/17 11:46:23;;;;;;;;;;;;;;;25.87;57.64;98901.31;5093662;28;19919;-42
2023/06/17 11:48:48;;;;;;;;;;;;;;;25.99;57.76;98892.47;5093757;28;20315;-41
2023/06/17 11:51:15;;;;;;;;;;;;;;;25.77;58.31;98893.50;5094052;28;19912;-41
2023/06/17 11:53:43;;;;;;;;;;;;;;;25.89;56.27;98891.69;5093496;28;19919;-41
2023/06/17 11:56:08;;;;;;;;;;;;;;;26.14;56.08;98894.66;5093776;28;20315;-41
2023/06/17 11:58:40;;;;;;;;;;;;;;;26.46;54.93;98889.69;5093706;28;20006;-43
2023/06/17 12:01:06;;;;;;;;;;;;;;;26.15;55.78;98893.53;5093245;28;20395;-41
2023/06/17 12:03:31;;;;;;;;;;;;;;;26.05;56.96;98894.72;5093709;28;20065;-41
2023/06/17 12:05:57;;;;;;;;;;;;;;;26.17;55.81;98888.56;5093317;28;20376;-41
2023/06/17 12:08:23;;;;;;;;;;;;;;;26.26;55.82;98889.31;5093048;28;19916;-41
2023/06/17 12:10:48;;;;;;;;;;;;;;;26.18;56.91;98887.44;5093443;28;19923;-42
2023/06/17 12:13:15;;;;;;;;;;;;;;;26.51;55.76;98887.56;5093559;28;19912;-42
2023/06/17 12:15:40;;;;;;;;;;;;;;;26.03;57.70;98896.97;5093211;28;20376;-43
2023/06/17 12:18:10;;;;;;;;;;;;;;;26.12;57.38;98891.47;5092945;28;19927;-42
2023/06/17 12:20:36;;;;;;;;;;;;;;;26.18;57.68;98892.06;5093538;28;19912;-42
2023/06/17 12:23:02;;;;;;;;;;;;;;;26.51;55.81;98889.50;5093162;28;19912;-41
2023/06/17 12:25:27;;;;;;;;;;;;;;;26.29;55.83;98893.31;5093161;28;20068;-41
2023/06/17 12:27:52;;;;;;;;;;;;;;;26.60;55.67;98887.56;5092993;28;20015;-41
2023/06/17 12:30:18;;;;;;;;;;;;;;;26.63;56.01;98888.81;5091987;28;19966;-42
2023/06/17 12:32:43;;;;;;;;;;;;;;;26.55;55.11;98884.19;5093803;28;19981;-43
2023/06/17 12:35:14;;;;;;;;;;;;;;;26.83;54.31;98881.78;5093702;28;20295;-43
2023/06/17 12:37:40;;;;;;;;;;;;;;;26.95;54.35;98881.84;5093011;28;20332;-42
2023/06/17 12:40:06;;;;;;;;;;;;;;;26.71;54.70;98877.03;5093508;28;20011;-42
2023/06/17 12:42:32;;;;;;;;;;;;;;;26.77;54.82;98883.91;5093751;28;19918;-43